Time;durP1;ratioP1;P1;durP2;ratioP2;P2;SDS_P1;SDS_P2;PMS_P1;PMS_P2;Temp;Humidity;BMP_temperature;BMP_pressure;BME280_temperature;BME280_humidity;BME280_pressure;Samples;Min_cycle;Max_cycle;Signal;HPM_P1;HPM_P2
2021/04/24 00:01:30;;;;;;;13.23;6.20;;;;;;;18.98;24.97;94977.78;5036175;28;20049;-44
2021/04/24 00:04:02;;;;;;;11.75;6.63;;;;;;;18.63;25.10;94979.13;5016924;28;20053;-46
2021/04/24 00:06:29;;;;;;;11.57;6.32;;;;;;;18.74;24.68;94980.31;5016773;28;20050;-46
2021/04/24 00:08:57;;;;;;;11.80;6.20;;;;;;;18.54;25.24;94976.53;5016705;28;20058;-45
2021/04/24 00:11:25;;;;;;;10.70;6.45;;;;;;;18.47;25.36;94976.25;5016497;28;20057;-44
2021/04/24 00:13:53;;;;;;;13.18;6.95;;;;;;;18.68;25.02;94982.38;5016723;28;20049;-46
2021/04/24 00:16:20;;;;;;;9.77;6.30;;;;;;;18.53;24.94;94990.09;5016565;28;20381;-46
2021/04/24 00:18:48;;;;;;;13.30;7.40;;;;;;;18.45;25.44;94984.50;5016495;28;20054;-45
2021/04/24 00:21:16;;;;;;;10.80;7.07;;;;;;;19.27;24.83;94973.50;5016596;28;20053;-45
2021/04/24 00:23:43;;;;;;;11.75;6.32;;;;;;;19.48;24.02;94971.56;5016271;28;20476;-45
2021/04/24 00:26:11;;;;;;;12.10;7.25;;;;;;;19.10;24.42;94985.03;5016437;28;20361;-46
2021/04/24 00:28:38;;;;;;;12.75;6.70;;;;;;;19.01;24.38;94982.47;5016235;28;20068;-45
2021/04/24 00:31:05;;;;;;;14.10;6.47;;;;;;;19.81;23.29;94978.78;5017173;28;20056;-44
2021/04/24 00:33:33;;;;;;;13.77;7.50;;;;;;;18.51;24.96;94981.69;5035849;28;20053;-46
2021/04/24 00:36:00;;;;;;;14.38;6.68;;;;;;;18.80;24.74;94979.03;5035952;28;20052;-45
2021/04/24 00:38:27;;;;;;;18.85;7.78;;;;;;;18.69;25.11;94983.16;5035853;28;20053;-45
2021/04/24 00:41:02;;;;;;;15.73;7.18;;;;;;;18.19;26.12;94976.69;5036023;28;20379;-44
2021/04/24 00:43:29;;;;;;;13.88;7.03;;;;;;;19.10;24.91;94975.22;5035620;28;20068;-45
2021/04/24 00:46:14;;;;;;;11.00;6.53;;;;;;;18.07;26.14;94978.47;5035840;28;20057;-44
2021/04/24 00:48:41;;;;;;;12.40;6.47;;;;;;;19.43;24.30;94979.75;5016167;28;20054;-45
2021/04/24 00:51:09;;;;;;;12.10;7.43;;;;;;;19.01;24.77;94984.34;5016136;28;20126;-45
2021/04/24 00:53:36;;;;;;;13.20;6.78;;;;;;;18.95;24.83;94983.72;5015884;28;20068;-45
2021/04/24 00:56:05;;;;;;;10.02;5.88;;;;;;;19.36;24.30;94974.97;5016020;28;20381;-45
2021/04/24 00:58:33;;;;;;;12.85;6.40;;;;;;;20.11;23.37;94977.47;5015747;28;20046;-57
2021/04/24 01:01:02;;;;;;;11.15;6.45;;;;;;;19.89;23.16;94980.53;5033088;28;20049;-45
2021/04/24 01:03:29;;;;;;;11.35;6.50;;;;;;;21.07;22.22;94979.56;5010064;28;20341;-46
2021/04/24 01:05:56;;;;;;;10.80;6.75;;;;;;;18.45;24.71;94975.78;5015858;28;20364;-45
2021/04/24 01:08:23;;;;;;;10.45;6.80;;;;;;;18.99;23.88;94981.22;5015658;28;20053;-45
2021/04/24 01:10:50;;;;;;;13.65;6.85;;;;;;;17.93;25.72;94977.91;5015649;28;20056;-45
2021/04/24 01:13:18;;;;;;;10.80;7.35;;;;;;;18.36;25.69;94983.78;5015495;28;20054;-45
2021/04/24 01:15:47;;;;;;;14.05;7.30;;;;;;;19.91;23.89;94988.94;5015636;28;20073;-44
2021/04/24 01:18:15;;;;;;;10.70;6.35;;;;;;;19.93;23.18;94992.03;5015497;28;20441;-45
2021/04/24 01:20:42;;;;;;;13.35;7.68;;;;;;;18.85;24.82;94991.31;5015716;28;20049;-46
2021/04/24 01:23:10;;;;;;;11.63;6.35;;;;;;;20.17;22.47;94985.97;5015339;28;20488;-46
2021/04/24 01:25:41;;;;;;;12.25;6.45;;;;;;;19.34;23.65;94981.69;5015664;28;20054;-46
2021/04/24 01:28:09;;;;;;;10.38;5.93;;;;;;;18.67;25.16;94990.63;5015219;28;20050;-45
2021/04/24 01:30:39;;;;;;;13.18;7.55;;;;;;;18.55;25.60;94979.94;5029738;28;20060;-45
2021/04/24 01:33:09;;;;;;;20.60;9.30;;;;;;;18.70;25.08;94984.69;5035016;28;20368;-45
2021/04/24 01:35:37;;;;;;;15.90;8.63;;;;;;;17.99;25.83;94974.00;5035224;28;20057;-45
2021/04/24 01:38:05;;;;;;;15.02;8.35;;;;;;;20.75;22.00;94971.47;5017530;28;20057;-44
2021/04/24 01:40:33;;;;;;;18.45;9.93;;;;;;;17.85;26.77;94966.28;5016065;28;20085;-44
2021/04/24 01:43:06;;;;;;;24.40;10.10;;;;;;;17.95;26.63;94965.13;5015116;28;20057;-44
2021/04/24 01:45:34;;;;;;;16.90;8.85;;;;;;;19.29;23.97;94973.97;5015330;28;20046;-44
2021/04/24 01:48:01;;;;;;;18.23;9.45;;;;;;;18.45;25.32;94979.22;5015015;28;20058;-44
2021/04/24 01:50:30;;;;;;;17.73;9.73;;;;;;;17.86;26.53;94981.81;5015245;28;20053;-44
2021/04/24 01:52:59;;;;;;;16.92;10.30;;;;;;;17.82;26.61;94988.06;5014903;28;20061;-43
2021/04/24 01:55:29;;;;;;;19.30;10.18;;;;;;;17.79;26.57;94984.19;5015301;28;20073;-44
2021/04/24 01:57:57;;;;;;;15.75;9.23;;;;;;;18.02;26.15;94987.38;5015055;28;20053;-45
2021/04/24 02:00:30;;;;;;;15.23;9.48;;;;;;;18.70;25.16;94990.00;5027708;28;20053;-44
2021/04/24 02:03:00;;;;;;;17.58;9.30;;;;;;;17.78;26.42;94982.63;5034733;28;20482;-46
2021/04/24 02:05:27;;;;;;;14.02;9.00;;;;;;;17.98;26.31;94986.47;5034990;28;20341;-44
2021/04/24 02:08:00;;;;;;;14.15;8.70;;;;;;;17.92;26.79;94977.13;5034749;28;20064;-45
2021/04/24 02:10:30;;;;;;;14.00;7.78;;;;;;;17.62;26.95;94984.19;5034873;28;20049;-53
2021/04/24 02:12:59;;;;;;;18.70;8.10;;;;;;;17.47;27.20;94982.06;5035126;28;20060;-43
2021/04/24 02:15:26;;;;;;;16.33;8.27;;;;;;;17.49;27.12;94983.31;5038692;28;20053;-44
2021/04/24 02:17:53;;;;;;;15.70;7.70;;;;;;;17.60;26.65;94983.75;5038420;28;20361;-45
2021/04/24 02:20:20;;;;;;;17.30;7.63;;;;;;;18.02;26.51;94978.66;5038499;28;20060;-45
2021/04/24 02:22:47;;;;;;;16.75;7.43;;;;;;;17.77;26.16;94983.72;5038205;28;20049;-44
2021/04/24 02:25:17;;;;;;;14.70;6.70;;;;;;;18.33;25.00;94986.31;5038519;28;20049;-45
2021/04/24 02:27:44;;;;;;;16.50;8.43;;;;;;;17.43;27.76;94983.78;5037893;28;20061;-45
2021/04/24 02:30:14;;;;;;;10.95;6.63;;;;;;;17.55;26.64;94984.69;5037478;28;20049;-51
2021/04/24 02:32:42;;;;;;;10.40;6.22;;;;;;;18.37;25.16;94976.63;5031312;28;20054;-45
2021/04/24 02:35:12;;;;;;;19.90;7.28;;;;;;;16.78;28.40;94979.47;5018079;28;20056;-44
2021/04/24 02:37:39;;;;;;;16.63;7.70;;;;;;;17.87;26.72;94975.44;5018029;28;20365;-45
2021/04/24 02:40:14;;;;;;;20.70;10.15;;;;;;;17.93;26.21;94975.25;5017935;28;20050;-44
2021/04/24 02:42:41;;;;;;;16.85;8.93;;;;;;;17.77;26.51;94970.50;5017244;28;20054;-46
2021/04/24 02:45:09;;;;;;;18.42;9.13;;;;;;;17.43;26.96;94973.19;5017803;28;20050;-44
2021/04/24 02:47:37;;;;;;;21.25;9.30;;;;;;;16.83;28.00;94979.31;5000248;28;20058;-45
2021/04/24 02:50:07;;;;;;;20.70;9.80;;;;;;;17.04;27.52;94971.56;5017848;28;20050;-48
2021/04/24 02:52:34;;;;;;;16.08;9.52;;;;;;;17.49;27.36;94974.59;5017393;28;20063;-47
2021/04/24 02:55:03;;;;;;;16.02;8.38;;;;;;;17.21;27.96;94990.03;5018020;28;20360;-45
2021/04/24 02:57:30;;;;;;;19.08;9.18;;;;;;;17.00;28.12;94989.88;5017904;28;20390;-47
2021/04/24 02:59:57;;;;;;;16.25;8.63;;;;;;;16.73;28.26;94987.53;5026972;28;20045;-44
2021/04/24 03:02:24;;;;;;;13.68;8.85;;;;;;;17.21;27.82;94980.25;5037685;28;20064;-51
2021/04/24 03:04:51;;;;;;;17.85;8.35;;;;;;;16.90;28.05;94979.63;5037937;28;20041;-45
2021/04/24 03:07:18;;;;;;;13.80;8.38;;;;;;;16.41;29.89;94978.94;5037878;28;20057;-44
2021/04/24 03:09:45;;;;;;;15.27;8.43;;;;;;;16.83;29.50;94979.31;5018673;28;20137;-44
2021/04/24 03:12:12;;;;;;;14.35;8.40;;;;;;;16.98;29.63;94992.06;5017702;28;20050;-45
2021/04/24 03:14:41;;;;;;;19.13;8.52;;;;;;;16.88;29.70;94987.06;5018022;28;20054;-45
2021/04/24 03:17:09;;;;;;;16.30;8.00;;;;;;;17.45;28.79;94989.53;5017905;28;20050;-44
2021/04/24 03:19:36;;;;;;;15.07;6.97;;;;;;;17.84;27.30;94991.94;5016821;28;20052;-45
2021/04/24 03:22:03;;;;;;;11.35;6.43;;;;;;;17.39;27.35;94988.91;5017735;28;20050;-44
2021/04/24 03:24:30;;;;;;;12.98;6.45;;;;;;;18.27;25.70;94985.72;5016605;28;20484;-47
2021/04/24 03:26:57;;;;;;;14.95;6.35;;;;;;;17.51;26.99;94989.06;5017687;28;20050;-44
2021/04/24 03:29:25;;;;;;;10.90;6.40;;;;;;;17.56;26.94;94985.47;5021891;28;20042;-42
2021/04/24 03:31:52;;;;;;;9.75;6.00;;;;;;;17.59;27.03;94995.41;5037364;28;20479;-48
2021/04/24 03:34:19;;;;;;;17.35;7.32;;;;;;;18.02;26.43;94992.66;5019332;28;20384;-44
2021/04/24 03:36:46;;;;;;;17.75;7.50;;;;;;;18.07;26.27;95004.94;5017374;28;20060;-44
2021/04/24 03:39:13;;;;;;;10.88;6.63;;;;;;;17.55;26.41;94986.56;5017307;28;20045;-44
2021/04/24 03:41:40;;;;;;;11.98;5.75;;;;;;;17.72;26.36;94989.19;5017411;28;20060;-44
2021/04/24 03:44:07;;;;;;;14.07;6.70;;;;;;;17.35;27.04;94987.22;5017017;28;20060;-44
2021/04/24 03:46:34;;;;;;;13.07;7.10;;;;;;;17.61;26.80;94992.44;5017231;28;20050;-45
2021/04/24 03:49:02;;;;;;;13.93;7.10;;;;;;;18.15;26.37;94983.72;5017006;28;20395;-45
2021/04/24 03:51:29;;;;;;;15.38;7.78;;;;;;;18.15;26.07;94985.59;5017259;28;20058;-44
2021/04/24 03:53:56;;;;;;;11.60;6.32;;;;;;;18.37;25.46;94998.56;5016928;28;20054;-44
2021/04/24 03:56:23;;;;;;;13.27;6.65;;;;;;;18.30;25.73;95000.94;5017004;28;20053;-44
2021/04/24 03:58:50;;;;;;;17.08;8.30;;;;;;;17.41;27.16;94996.53;5016822;28;20037;-44
2021/04/24 04:01:17;;;;;;;18.52;8.50;;;;;;;17.92;26.34;94997.50;5016945;28;20057;-44
2021/04/24 04:03:44;;;;;;;14.82;7.63;;;;;;;17.65;26.53;95010.00;5016751;28;20046;-44
2021/04/24 04:06:11;;;;;;;14.95;8.07;;;;;;;18.00;26.37;95017.91;5016803;28;20056;-44
2021/04/24 04:08:38;;;;;;;19.88;7.13;;;;;;;17.69;26.85;95021.53;5016738;28;20052;-44
2021/04/24 04:11:06;;;;;;;15.90;7.60;;;;;;;18.55;25.88;95025.72;5016826;28;20050;-45
2021/04/24 04:13:33;;;;;;;14.35;7.50;;;;;;;18.33;25.69;95020.72;5016592;28;20068;-46
2021/04/24 04:16:00;;;;;;;12.07;6.95;;;;;;;18.19;26.16;95018.25;5016585;28;20061;-44
2021/04/24 04:18:27;;;;;;;13.30;7.13;;;;;;;18.27;26.09;95017.47;5016894;28;20376;-45
2021/04/24 04:20:55;;;;;;;16.38;7.88;;;;;;;18.14;26.66;95010.50;5016762;28;20054;-45
2021/04/24 04:23:23;;;;;;;18.17;7.28;;;;;;;17.81;26.72;95002.38;5016275;28;20053;-45
2021/04/24 04:25:51;;;;;;;15.45;8.55;;;;;;;18.15;26.32;95012.06;5016589;28;20049;-44
2021/04/24 04:28:20;;;;;;;25.55;12.98;;;;;;;18.48;25.98;95017.53;5016200;28;20058;-45
2021/04/24 04:30:48;;;;;;;38.72;20.65;;;;;;;18.41;26.46;95010.06;5032143;28;20041;-44
2021/04/24 04:33:15;;;;;;;33.28;18.40;;;;;;;18.51;26.19;95008.16;5035882;28;20060;-44
2021/04/24 04:35:43;;;;;;;30.98;14.25;;;;;;;18.36;26.94;95012.91;5034970;28;20061;-45
2021/04/24 04:38:10;;;;;;;37.03;21.25;;;;;;;18.31;27.01;95021.03;5035622;28;20050;-44
2021/04/24 04:40:38;;;;;;;38.38;19.73;;;;;;;18.28;28.60;95012.94;5036034;28;20473;-44
2021/04/24 04:43:06;;;;;;;39.25;21.05;;;;;;;18.28;27.54;95008.44;5018545;28;20045;-44
2021/04/24 04:45:33;;;;;;;33.65;17.65;;;;;;;18.72;26.56;95016.94;5035843;28;20048;-45
2021/04/24 04:48:01;;;;;;;34.90;18.23;;;;;;;18.38;27.88;95016.00;5034981;28;20111;-46
2021/04/24 04:50:31;;;;;;;32.90;16.02;;;;;;;18.58;28.27;95013.72;5035953;28;20136;-46
2021/04/24 04:52:58;;;;;;;27.33;15.52;;;;;;;18.61;27.86;95018.38;5035942;28;20057;-45
2021/04/24 04:55:26;;;;;;;24.17;12.90;;;;;;;18.83;26.67;95020.75;5035882;28;20045;-45
2021/04/24 04:57:54;;;;;;;22.45;12.68;;;;;;;18.61;27.30;95007.78;5027764;28;20054;-44
2021/04/24 05:00:24;;;;;;;23.00;12.13;;;;;;;18.62;27.45;95009.34;5027088;28;20049;-47
2021/04/24 05:02:52;;;;;;;15.77;9.45;;;;;;;18.80;26.84;95002.88;5035721;28;20049;-44
2021/04/24 05:05:19;;;;;;;19.48;10.52;;;;;;;18.39;28.19;95006.19;5035519;28;20364;-44
2021/04/24 05:07:49;;;;;;;19.88;10.10;;;;;;;18.51;27.81;95003.66;5025305;28;20050;-45
2021/04/24 05:10:18;;;;;;;12.32;6.80;;;;;;;18.92;26.23;95002.16;5015786;28;20053;-43
2021/04/24 05:12:45;;;;;;;11.27;6.72;;;;;;;18.35;25.78;94995.47;5015758;28;20057;-43
2021/04/24 05:15:16;;;;;;;12.77;6.32;;;;;;;18.99;24.44;95000.53;5015384;28;20062;-46
2021/04/24 05:17:43;;;;;;;9.55;6.07;;;;;;;18.93;24.44;95014.28;5015663;28;20053;-45
2021/04/24 05:20:15;;;;;;;13.38;6.22;;;;;;;18.46;25.06;95011.75;5015643;28;20042;-44
2021/04/24 05:22:46;;;;;;;9.88;5.50;;;;;;;19.05;24.45;95012.50;5015827;28;20117;-44
2021/04/24 05:25:15;;;;;;;10.75;5.82;;;;;;;18.52;25.38;95009.72;5014841;28;20416;-44
2021/04/24 05:27:47;;;;;;;11.10;5.88;;;;;;;18.78;24.91;95016.44;5015103;28;20046;-43
2021/04/24 05:30:18;;;;;;;10.45;6.20;;;;;;;18.28;25.55;95019.03;5024601;28;20052;-44
2021/04/24 05:32:47;;;;;;;10.85;6.15;;;;;;;18.62;25.07;95030.53;4998319;28;20053;-44
2021/04/24 05:35:15;;;;;;;12.52;6.10;;;;;;;18.87;24.57;95026.97;5015520;28;20046;-45
2021/04/24 05:37:44;;;;;;;12.07;6.03;;;;;;;19.40;24.16;95009.56;5015086;28;20046;-45
2021/04/24 05:40:12;;;;;;;14.48;6.43;;;;;;;18.88;25.27;95017.16;5015475;28;20061;-45
2021/04/24 05:42:39;;;;;;;12.43;5.95;;;;;;;19.08;24.67;95022.44;5015409;28;20056;-46
2021/04/24 05:45:11;;;;;;;13.88;6.65;;;;;;;19.24;24.72;95009.38;5015260;28;20368;-46
2021/04/24 05:47:46;;;;;;;9.07;5.35;;;;;;;19.41;24.51;95014.53;5015066;28;20057;-44
2021/04/24 05:50:16;;;;;;;9.27;5.32;;;;;;;19.00;24.89;95023.31;5019435;28;20054;-45
2021/04/24 05:52:44;;;;;;;9.63;5.65;;;;;;;19.89;23.58;95025.66;5019412;28;20064;-45
2021/04/24 05:55:12;;;;;;;11.57;5.65;;;;;;;19.54;24.19;95025.22;5019384;28;20049;-45
2021/04/24 05:57:40;;;;;;;13.43;5.53;;;;;;;19.31;24.90;95020.25;5018901;28;20050;-44
2021/04/24 06:00:11;;;;;;;12.13;6.13;;;;;;;19.27;24.57;95023.88;5029395;28;20084;-44
2021/04/24 06:02:38;;;;;;;10.25;6.35;;;;;;;19.60;24.36;95032.66;5039029;28;20053;-44
2021/04/24 06:05:09;;;;;;;12.05;5.45;;;;;;;19.70;24.40;95034.88;5038983;28;20455;-44
2021/04/24 06:07:40;;;;;;;12.70;5.90;;;;;;;19.99;23.56;95033.16;5035368;28;20053;-44
2021/04/24 06:10:09;;;;;;;11.90;5.68;;;;;;;19.92;23.56;95027.63;5019023;28;20050;-44
2021/04/24 06:12:36;;;;;;;10.60;4.95;;;;;;;19.91;23.94;95031.41;5019174;28;20057;-45
2021/04/24 06:15:09;;;;;;;9.23;5.50;;;;;;;20.52;23.03;95023.50;5018778;28;20068;-45
2021/04/24 06:17:36;;;;;;;11.43;5.78;;;;;;;20.76;22.43;95017.41;5018664;28;20053;-45
2021/04/24 06:20:07;;;;;;;9.43;5.60;;;;;;;20.62;23.18;95023.84;5018721;28;20050;-44
2021/04/24 06:22:34;;;;;;;10.20;5.22;;;;;;;21.19;22.12;95035.38;5018734;28;20057;-45
2021/04/24 06:25:01;;;;;;;10.85;5.55;;;;;;;20.94;22.54;95035.41;5018665;28;20046;-45
2021/04/24 06:27:29;;;;;;;9.52;5.30;;;;;;;21.01;22.09;95020.78;5018176;28;20084;-44
2021/04/24 06:29:56;;;;;;;11.43;5.63;;;;;;;20.74;22.53;95022.28;5010415;28;20060;-44
2021/04/24 06:32:24;;;;;;;10.13;5.75;;;;;;;21.40;21.59;95022.69;5038013;28;20456;-44
2021/04/24 06:34:51;;;;;;;10.52;5.88;;;;;;;21.53;21.48;95023.41;5038028;28;20061;-45
2021/04/24 06:37:19;;;;;;;10.90;5.43;;;;;;;21.37;21.57;95031.34;5032736;28;20050;-46
2021/04/24 06:39:46;;;;;;;9.15;5.05;;;;;;;24.17;19.31;95035.34;5025780;28;20042;-43
2021/04/24 06:42:14;;;;;;;6.32;4.40;;;;;;;28.26;16.52;95025.75;5018391;28;20360;-44
2021/04/24 06:44:45;;;;;;;7.75;3.95;;;;;;;30.74;14.84;95028.66;5018390;28;20495;-42
2021/04/24 06:47:13;;;;;;;6.65;4.55;;;;;;;31.56;14.06;95033.22;5018113;28;20057;-41
2021/04/24 06:49:40;;;;;;;6.30;4.50;;;;;;;32.37;13.10;95034.06;5018179;28;20058;-44
2021/04/24 06:52:07;;;;;;;7.30;5.38;;;;;;;32.62;13.11;95032.91;5018060;28;20053;-43
2021/04/24 06:54:35;;;;;;;8.30;5.20;;;;;;;33.20;12.67;95033.47;5017642;28;20054;-46
2021/04/24 06:57:03;;;;;;;6.53;4.65;;;;;;;34.80;11.57;95024.59;5017815;28;20061;-44
2021/04/24 06:59:31;;;;;;;7.95;5.20;;;;;;;28.48;15.40;95023.84;5018336;28;20049;-48
2021/04/24 07:02:01;;;;;;;7.47;5.13;;;;;;;26.01;17.47;95020.25;5018227;28;20042;-47
2021/04/24 07:04:28;;;;;;;8.95;5.57;;;;;;;25.61;17.56;95024.44;5018185;28;20049;-48
2021/04/24 07:06:55;;;;;;;7.28;5.13;;;;;;;28.11;16.22;95021.50;5018256;28;20056;-48
2021/04/24 07:09:23;;;;;;;11.50;5.05;;;;;;;28.80;16.12;95021.88;5017620;28;20057;-50
2021/04/24 07:11:50;;;;;;;7.38;4.60;;;;;;;29.13;15.31;95020.66;5018075;28;20054;-56
2021/04/24 07:14:20;;;;;;;6.00;4.57;;;;;;;29.26;15.16;95017.56;5017929;28;20062;-48
2021/04/24 07:16:47;;;;;;;7.57;4.85;;;;;;;29.32;15.31;95022.16;5018006;28;20054;-49
2021/04/24 07:19:14;;;;;;;6.63;5.00;;;;;;;29.08;15.28;95025.69;5017511;28;20055;-51
2021/04/24 07:21:41;;;;;;;8.45;5.18;;;;;;;29.55;14.65;95021.72;5017840;28;20049;-50
2021/04/24 07:24:09;;;;;;;9.15;4.93;;;;;;;29.74;14.42;95026.63;5017865;28;20061;-55
2021/04/24 07:26:37;;;;;;;7.50;4.88;;;;;;;29.28;14.62;95026.78;5017798;28;20053;-50
2021/04/24 07:29:04;;;;;;;8.38;5.20;;;;;;;29.55;14.54;95026.31;5018727;28;20064;-46
2021/04/24 07:31:32;;;;;;;7.15;4.60;;;;;;;29.25;14.71;95030.25;5019722;28;20045;-45
2021/04/24 07:34:00;;;;;;;6.22;4.38;;;;;;;30.03;13.91;95024.56;5025340;28;20056;-66
2021/04/24 07:36:31;;;;;;;7.72;4.65;;;;;;;29.56;14.38;95025.16;5037280;28;20050;-60
2021/04/24 07:38:58;;;;;;;7.90;4.82;;;;;;;29.75;14.15;95016.63;5021796;28;20476;-53
2021/04/24 07:41:25;;;;;;;7.78;4.60;;;;;;;30.17;13.83;95015.59;5021677;28;20048;-47
2021/04/24 07:43:52;;;;;;;10.02;4.50;;;;;;;30.06;14.03;95023.75;5036995;28;20455;-50
2021/04/24 07:46:19;;;;;;;7.25;4.22;;;;;;;30.23;13.81;95018.66;5037005;28;20060;-45
2021/04/24 07:48:46;;;;;;;8.85;5.10;;;;;;;30.53;13.33;95016.09;5036635;28;20498;-49
2021/04/24 07:51:14;;;;;;;7.18;4.40;;;;;;;30.43;13.63;95014.25;5037069;28;20071;-44
2021/04/24 07:53:42;;;;;;;7.85;4.43;;;;;;;30.47;13.40;95023.09;5037041;28;20435;-44
2021/04/24 07:56:09;;;;;;;6.63;5.18;;;;;;;30.07;13.61;95016.44;5036112;28;20057;-49
2021/04/24 07:58:36;;;;;;;7.40;4.80;;;;;;;29.39;13.30;95015.97;5023034;28;20081;-51
2021/04/24 08:01:04;;;;;;;6.88;5.05;;;;;;;29.44;13.33;95013.69;5033689;28;20049;-49
2021/04/24 08:03:31;;;;;;;9.73;4.97;;;;;;;29.10;13.75;95009.91;5036787;28;20045;-46
2021/04/24 08:05:58;;;;;;;7.47;5.13;;;;;;;29.17;13.92;95007.22;5036825;28;20348;-49
2021/04/24 08:08:25;;;;;;;10.07;4.97;;;;;;;28.80;13.47;95008.41;5036247;28;20049;-48
2021/04/24 08:10:52;;;;;;;8.43;4.72;;;;;;;28.56;13.90;95010.00;5016492;28;20054;-48
2021/04/24 08:13:19;;;;;;;7.20;4.60;;;;;;;28.14;14.08;95005.38;5017007;28;20057;-46
2021/04/24 08:15:47;;;;;;;9.90;4.70;;;;;;;28.73;13.80;95007.66;5031776;28;20448;-46
2021/04/24 08:18:14;;;;;;;11.27;4.68;;;;;;;28.46;13.83;95004.63;5036028;28;20054;-51
2021/04/24 08:20:41;;;;;;;10.98;5.22;;;;;;;28.22;14.20;95004.22;5036406;28;20037;-47
2021/04/24 08:23:08;;;;;;;9.93;4.40;;;;;;;29.34;13.01;94992.16;5035528;28;20491;-48
2021/04/24 08:25:35;;;;;;;8.15;4.60;;;;;;;29.15;12.91;94990.69;5035171;28;20060;-49
2021/04/24 08:28:02;;;;;;;7.18;4.80;;;;;;;29.27;12.69;94987.56;5029896;28;20407;-49
2021/04/24 08:30:31;;;;;;;9.30;4.63;;;;;;;28.92;13.57;94998.44;5030041;28;20045;-48
2021/04/24 08:32:58;;;;;;;7.18;4.75;;;;;;;28.64;13.34;94988.47;5036657;28;20359;-47
2021/04/24 08:35:25;;;;;;;7.28;4.25;;;;;;;29.18;12.85;94981.84;5036192;28;20048;-49
2021/04/24 08:37:52;;;;;;;8.70;4.60;;;;;;;28.51;13.19;94969.28;5035678;28;20050;-48
2021/04/24 08:40:20;;;;;;;9.10;4.80;;;;;;;28.61;12.60;94973.84;5035217;28;20042;-50
2021/04/24 08:42:48;;;;;;;6.90;4.47;;;;;;;28.72;12.82;94969.25;5028564;28;20057;-47
2021/04/24 08:45:19;;;;;;;8.15;3.92;;;;;;;28.11;13.78;94963.13;5016217;28;20042;-48
2021/04/24 08:47:48;;;;;;;7.90;4.38;;;;;;;29.08;12.86;94953.78;5015772;28;20057;-48
2021/04/24 08:50:30;;;;;;;5.95;4.00;;;;;;;28.40;13.24;94947.03;5015944;28;20057;-48
2021/04/24 08:52:59;;;;;;;7.43;4.70;;;;;;;27.74;13.78;94954.63;5016166;28;20054;-49
2021/04/24 08:55:29;;;;;;;7.03;3.97;;;;;;;28.69;12.96;94951.19;4998837;28;20046;-48
2021/04/24 08:57:56;;;;;;;8.43;4.53;;;;;;;28.04;13.74;94935.47;5015544;28;20037;-50
2021/04/24 09:00:30;;;;;;;7.55;4.70;;;;;;;27.78;12.97;94950.03;5022645;28;20046;-50
2021/04/24 09:02:58;;;;;;;9.20;4.90;;;;;;;28.77;12.04;94944.63;5015062;28;20046;-48
2021/04/24 09:05:26;;;;;;;8.25;4.30;;;;;;;27.84;13.26;94948.50;5015919;28;20054;-49
2021/04/24 09:08:06;;;;;;;7.60;4.50;;;;;;;27.92;12.99;94931.25;5015463;28;20330;-48
2021/04/24 09:10:57;;;;;;;7.10;4.15;;;;;;;27.98;13.35;94932.41;5014808;28;20368;-48
2021/04/24 09:13:25;;;;;;;7.72;4.20;;;;;;;28.45;12.80;94917.03;5015832;28;20052;-48
2021/04/24 09:15:53;;;;;;;7.43;3.78;;;;;;;27.40;13.48;94919.25;5015666;28;20053;-48
2021/04/24 09:18:22;;;;;;;7.05;3.95;;;;;;;27.77;13.63;94917.03;5015290;28;20472;-49
2021/04/24 09:20:57;;;;;;;7.25;3.88;;;;;;;28.32;12.91;94911.28;5015706;28;20050;-48
2021/04/24 09:23:35;;;;;;;8.13;4.45;;;;;;;28.46;12.79;94897.84;5014872;28;20042;-51
2021/04/24 09:26:04;;;;;;;8.57;4.88;;;;;;;28.63;12.13;94901.66;5015567;28;20061;-48
2021/04/24 09:28:37;;;;;;;7.90;4.60;;;;;;;28.69;12.33;94908.16;5015224;28;20053;-50
2021/04/24 09:31:15;;;;;;;8.95;4.63;;;;;;;28.29;12.69;94898.63;5033532;28;20046;-50
2021/04/24 09:33:44;;;;;;;5.90;4.53;;;;;;;28.38;12.85;94900.94;5035300;28;20363;-48
2021/04/24 09:36:13;;;;;;;7.60;4.43;;;;;;;27.80;13.08;94904.75;5015423;28;20057;-49
2021/04/24 09:38:45;;;;;;;7.22;4.38;;;;;;;29.50;11.80;94889.38;5015180;28;20050;-48
2021/04/24 09:41:13;;;;;;;;;;;;;;;28.75;12.16;94889.69;5014898;28;20088;-48
2021/04/24 09:43:56;;;;;;;9.05;4.30;;;;;;;27.42;12.44;94890.88;5015491;28;20300;-49
2021/04/24 09:46:28;;;;;;;7.25;4.32;;;;;;;28.08;12.41;94877.88;5015327;28;20057;-49
2021/04/24 09:49:27;;;;;;;8.10;4.57;;;;;;;28.62;12.33;94873.19;5014952;28;20056;-52
2021/04/24 09:52:00;;;;;;;6.18;4.10;;;;;;;28.22;12.25;94869.81;4972493;28;20050;-48
2021/04/24 09:54:37;;;;;;;7.95;4.35;;;;;;;28.68;11.99;94860.13;5015258;28;20050;-50
2021/04/24 09:57:08;;;;;;;6.88;4.32;;;;;;;27.28;12.74;94870.13;5015329;28;20057;-50
2021/04/24 09:59:58;;;;;;;7.50;4.45;;;;;;;27.86;12.26;94860.28;5027339;28;20508;-49
2021/04/24 10:02:32;;;;;;;8.18;4.18;;;;;;;27.83;12.73;94844.88;5015356;28;20061;-53
2021/04/24 10:05:12;;;;;;;6.80;4.13;;;;;;;28.54;12.21;94847.50;4997281;28;20053;-49
2021/04/24 10:07:41;;;;;;;7.20;4.43;;;;;;;28.28;12.36;94847.94;5015157;28;20057;-49
2021/04/24 10:10:11;;;;;;;6.43;4.18;;;;;;;29.61;11.29;94841.59;5014416;28;20049;-47
2021/04/24 10:12:38;;;;;;;6.32;4.43;;;;;;;28.70;12.11;94837.06;5015218;28;20058;-49
2021/04/24 10:15:06;;;;;;;8.65;4.93;;;;;;;27.99;12.36;94836.44;5014936;28;20068;-52
2021/04/24 10:17:35;;;;;;;7.32;4.13;;;;;;;27.88;12.24;94836.47;5014987;28;20050;-49
2021/04/24 10:20:02;;;;;;;8.38;4.70;;;;;;;27.43;12.66;94833.38;5014770;28;20433;-46
2021/04/24 10:22:30;;;;;;;8.93;4.75;;;;;;;28.41;12.02;94830.25;5015124;28;20050;-48
2021/04/24 10:24:57;;;;;;;8.48;5.05;;;;;;;28.03;12.61;94831.84;5014736;28;20046;-48
2021/04/24 10:27:24;;;;;;;7.93;4.55;;;;;;;28.74;11.82;94827.06;4997592;28;20054;-48
2021/04/24 10:29:51;;;;;;;8.88;5.05;;;;;;;28.18;12.25;94823.38;5022615;28;20045;-47
2021/04/24 10:32:18;;;;;;;7.63;4.72;;;;;;;28.53;12.32;94821.75;5034608;28;20507;-48
2021/04/24 10:34:45;;;;;;;9.02;4.90;;;;;;;29.94;11.34;94824.00;5018446;28;20377;-49
2021/04/24 10:37:13;;;;;;;7.63;5.15;;;;;;;28.74;12.37;94816.28;5017664;28;20050;-47
2021/04/24 10:39:41;;;;;;;8.38;4.95;;;;;;;28.45;12.24;94818.34;5018406;28;20046;-49
2021/04/24 10:42:22;;;;;;;9.73;5.57;;;;;;;28.63;11.94;94820.19;5018455;28;20050;-47
2021/04/24 10:44:54;;;;;;;7.72;5.05;;;;;;;29.02;11.55;94817.34;5017379;28;20050;-47
2021/04/24 10:47:57;;;;;;;8.27;5.00;;;;;;;29.40;11.68;94810.91;5018373;28;20065;-48
2021/04/24 10:50:38;;;;;;;;;;;;;;;28.72;12.16;94813.22;4939166;29;20063;-49
2021/04/24 10:53:21;;;;;;;9.13;5.13;;;;;;;28.30;11.70;94818.75;5011595;28;20228;-48
2021/04/24 10:55:50;;;;;;;8.38;4.93;;;;;;;29.36;11.13;94820.97;5018354;28;20483;-47
2021/04/24 10:58:21;;;;;;;10.43;5.18;;;;;;;29.38;11.44;94826.72;5017845;28;20049;-47
2021/04/24 11:00:56;;;;;;;11.63;6.50;;;;;;;30.34;10.06;94833.25;5022516;28;20392;-46
2021/04/24 11:03:35;;;;;;;10.57;5.90;;;;;;;28.92;11.32;94837.00;5018267;28;20373;-47
2021/04/24 11:06:13;;;;;;;10.55;5.53;;;;;;;27.91;12.03;94835.69;5018153;28;20046;-47
2021/04/24 11:08:41;;;;;;;7.53;5.53;;;;;;;29.70;10.53;94831.16;5017769;28;20057;-49
2021/04/24 11:11:20;;;;;;;8.20;5.32;;;;;;;29.26;11.50;94839.88;5017915;28;20042;-47
2021/04/24 11:13:52;;;;;;;8.82;5.35;;;;;;;30.44;10.73;94845.84;5018022;28;20057;-47
2021/04/24 11:16:19;;;;;;;9.73;5.57;;;;;;;28.63;11.83;94841.72;5017896;28;20049;-47
2021/04/24 11:18:48;;;;;;;9.88;5.40;;;;;;;31.79;9.19;94849.56;5017516;28;20057;-50
2021/04/24 11:21:18;;;;;;;9.68;5.32;;;;;;;28.29;11.43;94854.84;5017275;28;20053;-47
2021/04/24 11:23:51;;;;;;;10.80;5.88;;;;;;;26.76;12.80;94855.38;5017826;28;20065;-48
2021/04/24 11:26:33;;;;;;;10.60;5.70;;;;;;;26.80;12.68;94850.03;5017605;28;20453;-47
2021/04/24 11:29:24;;;;;;;10.15;5.93;;;;;;;26.18;13.11;94842.81;5018392;28;20054;-48
2021/04/24 11:32:09;;;;;;;9.27;4.93;;;;;;;25.78;14.12;94841.81;5016460;28;20053;-47
2021/04/24 11:34:38;;;;;;;9.95;5.60;;;;;;;26.82;13.61;94847.78;5017645;28;20053;-49
2021/04/24 11:37:33;;;;;;;9.23;5.47;;;;;;;27.90;12.46;94843.00;5017526;28;20061;-48
2021/04/24 11:40:20;;;;;;;10.27;4.82;;;;;;;30.95;10.13;94838.72;5017290;28;20041;-48